Time;durP1;ratioP1;P1;durP2;ratioP2;P2;SDS_P1;SDS_P2;PMS_P1;PMS_P2;Temp;Humidity;BMP_temperature;BMP_pressure;BME280_temperature;BME280_humidity;BME280_pressure;Samples;Min_cycle;Max_cycle;Signal;HPM_P1;HPM_P2
2022/10/18 05:42:36;;;;;;;21.33;12.63;;;;;;;6.17;100.00;100100.86;4669690;74;22781;-83
2022/10/18 05:48:38;;;;;;;24.32;12.25;;;;;;;6.06;100.00;100111.22;4487867;77;20995;-82
2022/10/18 05:54:40;;;;;;;25.05;12.37;;;;;;;6.03;100.00;100101.53;4489571;78;20977;-83
2022/10/18 06:00:41;;;;;;;23.62;13.65;;;;;;;6.09;100.00;100108.45;4492019;78;20996;-83
2022/10/18 06:06:43;;;;;;;21.73;13.08;;;;;;;6.29;100.00;100109.98;4478568;78;21063;-83
2022/10/18 06:12:44;;;;;;;28.38;15.03;;;;;;;6.35;100.00;100118.22;4502046;78;21851;-83
2022/10/18 06:18:51;;;;;;;27.32;14.87;;;;;;;6.56;100.00;100114.84;4476059;78;20990;-83
2022/10/18 06:24:53;;;;;;;36.23;15.98;;;;;;;6.78;100.00;100107.86;4488251;77;21007;-83
2022/10/18 06:30:56;;;;;;;30.15;17.60;;;;;;;7.01;100.00;100104.61;4392350;79;21851;-84
2022/10/18 06:36:58;;;;;;;36.33;17.95;;;;;;;7.30;100.00;100111.47;4470882;78;20966;-83
2022/10/18 06:43:05;;;;;;;24.87;15.43;;;;;;;7.57;100.00;100114.31;4542323;77;22190;-83
2022/10/18 06:49:07;;;;;;;33.43;17.37;;;;;;;7.97;100.00;100110.88;4420917;79;20952;-83
2022/10/18 06:55:09;;;;;;;41.48;20.68;;;;;;;8.34;100.00;100117.40;4417987;79;21581;-84
2022/10/18 07:01:18;;;;;;;37.30;19.30;;;;;;;8.68;100.00;100109.47;4508370;77;20989;-83
2022/10/18 07:07:19;;;;;;;28.57;19.05;;;;;;;9.12;100.00;100116.89;4326537;80;20962;-83
2022/10/18 07:13:21;;;;;;;27.87;16.10;;;;;;;9.68;100.00;100113.91;4503778;78;21028;-84
2022/10/18 07:19:23;;;;;;;22.70;14.95;;;;;;;10.18;100.00;100104.77;4502479;77;21931;-83
2022/10/18 07:25:24;;;;;;;23.22;12.82;;;;;;;10.72;100.00;100103.21;4497772;77;21513;-84
2022/10/18 07:31:27;;;;;;;26.60;13.20;;;;;;;11.49;100.00;100105.28;4506646;78;65493;-83
2022/10/18 07:37:29;;;;;;;23.12;13.83;;;;;;;11.97;100.00;100102.72;4212265;83;21128;-84
2022/10/18 07:43:32;;;;;;;25.80;13.38;;;;;;;12.57;100.00;100093.25;4260589;82;21078;-84
2022/10/18 07:50:01;;;;;;;24.57;14.47;;;;;;;12.97;100.00;100087.94;4262698;82;21532;-84
2022/10/18 07:56:15;;;;;;;23.20;13.32;;;;;;;13.50;100.00;100097.98;4350085;80;20976;-84
2022/10/18 08:02:17;;;;;;;22.75;13.32;;;;;;;14.06;100.00;100089.23;4337294;81;20988;-85
2022/10/18 08:08:22;;;;;;;25.43;13.35;;;;;;;14.62;99.26;100082.32;4341693;81;21650;-84
2022/10/18 08:14:23;;;;;;;21.62;12.58;;;;;;;15.16;98.03;100073.66;4335618;81;20992;-85
2022/10/18 08:20:24;;;;;;;23.90;13.22;;;;;;;15.97;96.92;100069.42;4352451;81;21450;-84
2022/10/18 08:33:39;;;;;;;17.15;10.65;;;;;;;17.23;93.28;100063.83;4302884;81;21019;-82
2022/10/18 08:39:41;;;;;;;21.12;11.68;;;;;;;18.08;90.48;100056.30;4319003;80;21024;-83
2022/10/18 08:45:43;;;;;;;20.60;9.78;;;;;;;19.02;89.26;100051.56;4295730;80;21623;-83
2022/10/18 08:51:47;;;;;;;19.98;9.30;;;;;;;19.87;87.15;100044.77;4290040;80;21047;-84
2022/10/18 08:57:50;;;;;;;14.73;7.67;;;;;;;20.58;86.33;100040.63;4296543;80;21055;-84
2022/10/18 09:04:16;;;;;;;12.95;8.10;;;;;;;21.48;82.74;100042.70;4292196;80;21898;-84
2022/10/18 09:10:45;;;;;;;13.58;7.90;;;;;;;21.95;79.99;100038.52;4316873;79;21018;-85
2022/10/18 09:17:06;;;;;;;12.35;8.03;;;;;;;22.71;79.56;100028.43;4306427;80;21818;-85
2022/10/18 09:23:39;;;;;;;11.80;8.10;;;;;;;23.31;77.86;100015.31;4291022;80;20971;-84
2022/10/18 09:30:28;;;;;;;16.48;8.15;;;;;;;23.87;73.72;100001.28;4381326;80;20979;-85
2022/10/18 09:36:37;;;;;;;12.45;7.78;;;;;;;23.78;72.13;99984.95;4259796;80;20963;-85
2022/10/18 09:43:10;;;;;;;12.60;7.42;;;;;;;24.12;70.73;99956.66;4309048;80;21020;-85
2022/10/18 09:49:41;;;;;;;13.93;8.18;;;;;;;24.65;69.52;99957.27;4259510;82;21066;-85
2022/10/18 09:56:17;;;;;;;10.38;6.80;;;;;;;25.16;68.10;99967.09;4303931;80;20980;-85
2022/10/18 10:02:22;;;;;;;14.03;8.93;;;;;;;25.93;65.34;99952.59;4339455;80;21035;-85
2022/10/18 10:08:39;;;;;;;14.87;8.05;;;;;;;26.09;64.20;99948.88;4282886;80;21055;-85
2022/10/18 10:14:43;;;;;;;10.40;7.12;;;;;;;26.31;61.13;99938.39;4256187;82;21047;-85
2022/10/18 10:20:54;;;;;;;15.15;7.15;;;;;;;26.20;60.07;99935.23;4294306;83;21058;-85
2022/10/18 10:27:12;;;;;;;12.50;6.87;;;;;;;26.23;58.99;99923.09;4338937;80;21043;-84
2022/10/18 10:33:37;;;;;;;11.33;6.08;;;;;;;25.88;57.37;99921.55;4333924;80;21061;-85
2022/10/18 10:39:39;;;;;;;7.63;5.03;;;;;;;25.68;56.56;99907.86;4295097;80;20988;-85
2022/10/18 10:46:11;;;;;;;12.00;6.70;;;;;;;25.10;56.00;99895.45;4312730;80;21454;-85
2022/10/18 10:58:47;;;;;;;6.28;5.03;;;;;;;24.45;54.61;99866.33;4246014;82;21621;-84
2022/10/18 11:04:52;;;;;;;9.48;5.15;;;;;;;24.37;53.64;99856.59;4252466;83;21018;-84
2022/10/18 11:11:26;;;;;;;7.65;4.70;;;;;;;24.06;53.77;99844.37;4280297;82;21036;-85
2022/10/18 11:17:36;;;;;;;5.97;3.98;;;;;;;23.99;53.11;99841.16;4246381;82;20976;-84
2022/10/18 11:23:42;;;;;;;5.92;3.72;;;;;;;23.50;52.38;99830.61;4278212;81;21012;-83
2022/10/18 11:30:12;;;;;;;5.80;4.43;;;;;;;23.13;51.27;99818.80;4291546;81;21054;-86
2022/10/18 11:36:48;;;;;;;9.38;4.90;;;;;;;22.85;51.18;99810.37;4134113;81;21062;-85
2022/10/18 11:43:28;;;;;;;8.80;5.45;;;;;;;22.44;51.57;99797.02;4307588;80;21019;-84
2022/10/18 11:50:08;;;;;;;8.28;5.30;;;;;;;22.16;51.48;99789.95;4369405;80;21035;-84
2022/10/18 11:56:31;;;;;;;14.75;6.08;;;;;;;21.84;51.33;99787.08;4352962;80;20975;-84
2022/10/18 12:03:20;;;;;;;8.65;5.60;;;;;;;21.50;51.41;99777.63;4324968;80;21011;-83
2022/10/18 12:09:38;;;;;;;12.37;5.90;;;;;;;21.41;50.92;99780.98;4342108;80;21086;-84
2022/10/18 12:15:41;;;;;;;10.13;5.35;;;;;;;21.36;50.75;99768.94;4346671;80;21006;-84
2022/10/18 12:21:42;;;;;;;8.80;5.92;;;;;;;21.29;50.88;99759.35;4352355;80;21011;-84
2022/10/18 12:28:32;;;;;;;8.13;5.87;;;;;;;21.24;51.15;99744.53;4353086;80;20948;-82
2022/10/18 12:35:15;;;;;;;12.10;5.72;;;;;;;21.16;52.37;99744.48;4340673;80;21012;-83
2022/10/18 12:41:29;;;;;;;10.25;6.42;;;;;;;21.05;51.59;99736.16;4292950;81;20979;-83
2022/10/18 12:47:52;;;;;;;10.20;5.62;;;;;;;21.02;51.62;99733.63;4281718;81;21054;-84
2022/10/18 12:54:10;;;;;;;12.23;6.12;;;;;;;20.92;51.44;99721.29;4150108;84;21740;-83
2022/10/18 13:00:30;;;;;;;10.53;5.25;;;;;;;20.84;52.06;99708.72;4051470;86;21131;-83
2022/10/18 13:07:01;;;;;;;8.40;5.83;;;;;;;20.80;51.42;99706.59;4009683;87;21087;-83
2022/10/18 13:13:16;;;;;;;14.07;6.53;;;;;;;20.75;52.13;99694.59;4004405;87;22434;-84
2022/10/18 13:19:51;;;;;;;9.95;5.72;;;;;;;20.72;52.61;99681.53;4302894;80;21085;-84
2022/10/18 13:26:23;;;;;;;14.73;5.85;;;;;;;20.68;52.25;99668.28;4308899;80;22260;-83
2022/10/18 13:32:45;;;;;;;11.97;5.40;;;;;;;20.58;52.57;99669.28;4314260;80;21586;-85
2022/10/18 13:45:44;;;;;;;13.18;6.20;;;;;;;20.31;52.96;99640.77;4333256;80;21008;-83
2022/10/18 13:52:16;;;;;;;10.32;5.30;;;;;;;20.36;52.57;99631.95;4285337;81;21047;-83
2022/10/18 13:58:48;;;;;;;10.18;5.80;;;;;;;20.33;52.59;99618.89;4391715;80;20997;-84
2022/10/18 14:05:15;;;;;;;9.50;5.72;;;;;;;20.31;52.56;99613.76;4377844;81;20998;-83
2022/10/18 14:11:57;;;;;;;8.83;5.47;;;;;;;20.26;52.78;99607.30;4301543;80;20960;-84
2022/10/18 14:18:07;;;;;;;14.07;6.00;;;;;;;20.12;53.11;99607.52;4306147;80;22040;-83
2022/10/18 14:24:21;;;;;;;10.88;5.90;;;;;;;19.98;53.50;99604.98;4310638;80;21732;-83
2022/10/18 14:30:22;;;;;;;12.55;5.67;;;;;;;19.88;53.77;99595.63;4247228;82;21020;-83
2022/10/18 14:36:30;;;;;;;13.62;6.33;;;;;;;19.75;54.08;99598.01;4207755;83;21049;-84
2022/10/18 14:42:32;;;;;;;12.80;6.47;;;;;;;19.54;54.50;99595.59;4220630;83;21948;-84
2022/10/18 14:48:33;;;;;;;15.55;6.42;;;;;;;19.25;55.13;99591.61;4208344;83;21124;-84
2022/10/18 14:54:37;;;;;;;12.53;7.62;;;;;;;19.09;55.88;99588.69;4284460;81;21069;-83
2022/10/18 15:00:39;;;;;;;16.48;7.00;;;;;;;18.87;56.64;99581.23;4311086;80;21628;-84
2022/10/18 15:06:44;;;;;;;11.30;6.17;;;;;;;18.67;57.61;99572.78;4308859;80;21042;-83
2022/10/18 15:12:47;;;;;;;;;;;;;;;18.42;57.90;99578.42;4300020;81;21042;-83
2022/10/18 15:19:15;;;;;;;10.50;5.60;;;;;;;18.15;58.76;99571.97;4283823;81;20170;-85
2022/10/18 15:25:29;;;;;;;14.05;6.60;;;;;;;17.99;59.10;99566.19;4304238;80;21359;-83
2022/10/18 15:31:35;;;;;;;18.10;6.97;;;;;;;17.85;59.66;99560.78;4299997;80;21983;-83
2022/10/18 15:37:43;;;;;;;15.53;6.25;;;;;;;17.64;60.19;99571.44;4299010;80;21514;-83
2022/10/18 15:43:46;;;;;;;14.83;7.37;;;;;;;17.57;60.61;99560.41;4290792;80;21015;-83
2022/10/18 15:49:59;;;;;;;18.25;7.72;;;;;;;17.49;60.97;99553.38;4377219;80;21018;-83
2022/10/18 15:56:13;;;;;;;16.20;8.53;;;;;;;17.41;61.27;99555.98;4351331;79;21055;-83
2022/10/18 16:02:15;;;;;;;21.93;10.25;;;;;;;17.27;61.51;99557.47;4322937;80;21062;-83
2022/10/18 16:08:24;;;;;;;24.47;12.15;;;;;;;16.93;61.96;99563.38;4345919;80;21007;-83
2022/10/18 16:14:25;;;;;;;28.38;15.68;;;;;;;16.77;62.91;99556.18;4346534;80;21515;-85
2022/10/18 16:20:27;;;;;;;31.00;15.53;;;;;;;16.48;63.15;99556.89;4343832;80;21059;-83
2022/10/18 16:26:29;;;;;;;25.88;13.72;;;;;;;16.29;63.99;99552.37;4344695;80;20991;-83
2022/10/18 16:32:31;;;;;;;27.07;14.25;;;;;;;16.21;64.68;99553.61;4343544;80;21019;-83
2022/10/18 16:38:35;;;;;;;23.95;11.83;;;;;;;16.17;65.54;99566.62;4342525;80;21000;-83
2022/10/18 16:44:37;;;;;;;23.42;11.85;;;;;;;16.09;65.64;99568.61;4340596;80;20959;-82
2022/10/18 16:50:38;;;;;;;27.10;14.25;;;;;;;15.98;66.59;99568.42;4344238;80;21031;-84
2022/10/18 16:56:40;;;;;;;35.80;22.00;;;;;;;15.85;67.12;99565.28;4336757;81;20983;-82
2022/10/18 17:02:43;;;;;;;54.35;28.25;;;;;;;15.76;67.24;99563.52;4337945;80;20999;-83
2022/10/18 17:08:45;;;;;;;42.15;25.85;;;;;;;15.68;67.72;99565.32;4343588;81;21469;-83
2022/10/18 17:14:46;;;;;;;36.35;21.23;;;;;;;15.56;68.11;99574.77;4338849;81;21476;-83
2022/10/18 17:20:49;;;;;;;37.40;19.35;;;;;;;15.41;68.82;99589.14;4340583;81;21024;-83
2022/10/18 17:26:50;;;;;;;40.48;19.60;;;;;;;15.27;70.03;99586.91;4338230;81;20995;-83
2022/10/18 17:32:52;;;;;;;39.33;18.77;;;;;;;15.14;70.85;99591.23;4360252;81;21026;-83
2022/10/18 17:38:54;;;;;;;34.70;17.92;;;;;;;14.94;70.68;99601.04;4213085;80;9999894;-83
2022/10/18 17:44:55;;;;;;;46.35;20.50;;;;;;;14.72;72.11;99597.39;4335617;80;21015;-83
2022/10/18 17:50:57;;;;;;;43.68;22.67;;;;;;;14.67;72.68;99612.15;4335335;79;22042;-83
2022/10/18 17:56:59;;;;;;;50.67;25.27;;;;;;;14.41;72.95;99607.68;4307086;80;21481;-84
2022/10/18 18:03:00;;;;;;;42.08;24.85;;;;;;;14.20;73.12;99607.55;4324319;81;21042;-83
2022/10/18 18:09:06;;;;;;;44.75;24.47;;;;;;;14.05;73.69;99608.60;4275557;81;21007;-84
2022/10/18 18:15:08;;;;;;;46.00;26.75;;;;;;;13.95;73.90;99602.45;4210150;83;21017;-83
2022/10/18 18:21:10;;;;;;;44.42;23.55;;;;;;;13.92;74.81;99609.50;4244239;82;21058;-83
2022/10/18 18:27:11;;;;;;;43.20;23.30;;;;;;;13.95;75.42;99608.73;4273753;81;21062;-83
2022/10/18 18:33:14;;;;;;;39.23;21.48;;;;;;;14.08;76.35;99616.09;4207331;83;21533;-83
2022/10/18 18:39:28;;;;;;;39.42;21.62;;;;;;;14.15;76.12;99613.41;4132020;82;9999852;-83
2022/10/18 18:45:28;;;;;;;43.17;23.40;;;;;;;14.18;75.90;99618.94;4215965;82;21966;-83
2022/10/18 18:51:31;;;;;;;34.53;20.52;;;;;;;14.13;76.04;99617.92;4256388;82;21014;-83
2022/10/18 18:57:33;;;;;;;35.75;18.07;;;;;;;14.20;76.81;99619.33;4257453;82;21054;-85
2022/10/18 19:03:37;;;;;;;31.77;18.32;;;;;;;14.33;76.89;99619.06;4271149;81;20995;-84
2022/10/18 19:09:40;;;;;;;30.68;17.65;;;;;;;14.39;77.34;99617.52;4270700;81;21078;-83
2022/10/18 19:15:41;;;;;;;37.25;18.35;;;;;;;14.45;77.97;99615.97;4270302;82;21097;-84
2022/10/18 19:21:48;;;;;;;35.88;17.98;;;;;;;14.56;77.93;99625.88;4270123;81;21878;-83
2022/10/18 19:27:49;;;;;;;43.13;21.30;;;;;;;14.68;77.59;99626.12;4194460;83;20985;-83
2022/10/18 19:33:51;;;;;;;34.43;17.77;;;;;;;14.82;77.33;99623.42;4128940;83;20974;-83
2022/10/18 19:39:52;;;;;;;26.87;15.45;;;;;;;14.92;77.26;99626.23;4139385;81;10000049;-83
2022/10/18 19:45:54;;;;;;;28.45;13.85;;;;;;;15.03;77.15;99628.45;4275882;81;21547;-82
2022/10/18 19:51:56;;;;;;;19.67;12.75;;;;;;;15.13;77.16;99637.32;4262298;81;21043;-85
2022/10/18 19:57:57;;;;;;;27.75;13.40;;;;;;;15.18;77.40;99638.33;4267930;81;21018;-84
2022/10/18 20:03:59;;;;;;;20.25;12.55;;;;;;;15.24;77.66;99641.48;4154920;83;21060;-83
2022/10/18 20:10:01;;;;;;;18.67;12.30;;;;;;;15.32;77.91;99631.47;4267713;82;21942;-83
2022/10/18 20:16:05;;;;;;;19.85;12.05;;;;;;;15.43;78.33;99639.20;4241596;82;21006;-83
2022/10/18 20:22:06;;;;;;;18.50;12.43;;;;;;;15.53;78.69;99646.69;4272965;82;20991;-83
2022/10/18 20:28:08;;;;;;;21.75;12.82;;;;;;;15.58;79.15;99654.59;4277156;81;21061;-84
2022/10/18 20:34:10;;;;;;;20.95;14.75;;;;;;;15.64;79.53;99662.67;4256402;81;21570;-83
2022/10/18 20:40:13;;;;;;;23.98;15.00;;;;;;;15.64;80.37;99676.48;4273493;82;21500;-82
2022/10/18 20:46:17;;;;;;;34.63;17.80;;;;;;;15.53;82.16;99692.22;4276129;81;20999;-85
2022/10/18 20:52:18;;;;;;;24.23;18.07;;;;;;;15.29;83.79;99704.55;4309037;80;21043;-84
2022/10/18 20:58:21;;;;;;;32.00;20.80;;;;;;;15.05;85.93;99725.94;4315374;80;20994;-85
2022/10/18 21:04:26;;;;;;;32.17;20.92;;;;;;;14.88;87.08;99726.03;4315001;80;21041;-85
2022/10/18 21:10:36;;;;;;;14.47;10.05;;;;;;;14.72;88.63;99741.30;4299368;81;21031;-85
2022/10/18 21:30:12;;;;;;;9.13;3.87;;;;;;;14.10;89.18;99763.80;4306802;80;21048;-84
2022/10/18 21:36:14;;;;;;;4.83;2.90;;;;;;;14.02;89.80;99758.83;4338713;81;21070;-84
2022/10/18 21:42:15;;;;;;;5.55;3.17;;;;;;;13.96;90.68;99764.47;4278710;81;21109;-84
2022/10/18 21:48:41;;;;;;;5.25;3.10;;;;;;;13.91;90.92;99781.89;4337465;80;20988;-84
2022/10/18 21:54:48;;;;;;;4.08;2.60;;;;;;;13.88;91.80;99782.08;4343940;80;21063;-84
2022/10/18 22:00:52;;;;;;;3.05;2.30;;;;;;;13.92;92.20;99784.88;4363382;80;22016;-84
2022/10/18 22:07:15;;;;;;;6.87;2.85;;;;;;;13.91;92.06;99783.27;4341030;80;21030;-84
2022/10/18 22:13:44;;;;;;;5.75;2.50;;;;;;;13.84;93.07;99772.98;4373924;80;20979;-84
2022/10/18 22:19:53;;;;;;;5.17;2.65;;;;;;;13.87;93.52;99776.38;4306608;80;21018;-84
2022/10/18 22:26:16;;;;;;;4.78;2.58;;;;;;;13.81;93.64;99755.08;4271333;82;21015;-84
2022/10/18 22:32:17;;;;;;;5.28;3.12;;;;;;;13.81;93.58;99754.47;4229866;83;21080;-84
2022/10/18 22:38:19;;;;;;;4.08;2.80;;;;;;;13.79;94.73;99759.59;4235035;83;21479;-84
2022/10/18 22:44:24;;;;;;;7.17;3.33;;;;;;;13.84;94.88;99758.45;4237110;83;21104;-83
2022/10/18 22:50:25;;;;;;;3.40;2.85;;;;;;;13.82;95.36;99760.78;4239542;82;21071;-85
2022/10/18 22:56:28;;;;;;;5.40;3.15;;;;;;;13.72;95.33;99762.25;4240775;82;21594;-83
2022/10/18 23:02:33;;;;;;;5.03;2.95;;;;;;;13.62;95.49;99752.52;4260289;82;21066;-84
2022/10/18 23:08:34;;;;;;;4.75;2.72;;;;;;;13.65;96.42;99764.14;4318457;80;21534;-84
2022/10/18 23:14:35;;;;;;;3.70;2.40;;;;;;;13.71;96.63;99773.63;4294472;80;21130;-84
2022/10/18 23:20:37;;;;;;;3.47;2.35;;;;;;;13.69;96.87;99769.88;4314429;80;21011;-84
2022/10/18 23:26:38;;;;;;;4.65;2.58;;;;;;;13.66;96.68;99763.76;4325895;80;21045;-85
2022/10/18 23:32:40;;;;;;;3.25;2.52;;;;;;;13.57;97.54;99764.65;4378809;80;21045;-84
2022/10/18 23:45:30;;;;;;;7.53;5.17;;;;;;;13.59;98.41;99778.03;4296381;80;21010;-84
2022/10/18 23:51:33;;;;;;;7.67;5.50;;;;;;;13.55;98.82;99786.80;4316574;81;21062;-83
2022/10/18 23:57:35;;;;;;;8.38;6.08;;;;;;;13.52;99.14;99786.18;4300079;81;21061;-83
